Flight Track Log - Related Links

Times and Time Zones

All times are in EST time to prevent confusion due to time zone crossing. See the KAL1333 flight status page for this flight to view local times or setup timezone preferences in your user account.

Time Position Orientation Groundspeed Altitude Reporting Facility
EST Latitude Longitude Course Direction KTS MPH feet Rate Location/Type
Mon 08:32:00 PM 37.4733 126.8173 166° South  Level Estimated
Mon 08:33:00 PM 37.3882 126.8440 166° South  Level Estimated
Mon 08:34:00 PM 37.3032 126.8706 166° South  Level Estimated
Mon 08:35:00 PM 37.2153 126.8980 166° South  Level Estimated
Mon 08:36:00 PM 37.1275 126.9253 166° South  Level Estimated
Mon 08:37:00 PM 37.0397 126.9526 166° South  Level Estimated
Mon 08:38:00 PM 36.9519 126.9798 166° South  Level Estimated
Mon 08:39:00 PM 36.8640 127.0069 166° South  Level Estimated
Mon 08:40:00 PM 36.7762 127.0340 166° South  Level Estimated
Mon 08:41:00 PM 36.6883 127.0610 166° South  Level Estimated
Mon 08:42:00 PM 36.6005 127.0880 166° South  Level Estimated
Mon 08:43:00 PM 36.5126 127.1149 166° South  Level Estimated
Mon 08:44:00 PM 36.4248 127.1417 166° South  Level Estimated
Mon 08:45:00 PM 36.3369 127.1684 166° South  Level Estimated
Mon 08:46:00 PM 36.2490 127.1952 166° South  Level Estimated
Mon 08:47:00 PM 36.1611 127.2218 166° South  Level Estimated
Mon 08:48:00 PM 36.0732 127.2484 166° South  Level Estimated
Mon 08:49:00 PM 35.9853 127.2749 166° South  Level Estimated
Mon 08:50:00 PM 35.8974 127.3014 166° South  Level Estimated
Mon 08:51:00 PM 35.8095 127.3278 166° South  Level Estimated
Mon 08:52:00 PM 35.7216 127.3542 166° South  Level Estimated
Mon 08:53:00 PM 35.6337 127.3805 166° South  Level Estimated
Mon 08:54:00 PM 35.5458 127.4067 166° South  Level Estimated
Mon 08:55:00 PM 35.4579 127.4329 166° South  Level Estimated
Mon 08:56:00 PM 35.3699 127.4591 166° South  Level Estimated
Mon 08:57:00 PM 35.2820 127.4851 166° South  Level Estimated
Mon 08:58:00 PM 35.1940 127.5111 166° South  Level Estimated
Mon 08:59:00 PM 35.1061 127.5371 166° South  Level Estimated
Mon 09:00:00 PM 35.0181 127.5630 166° South  Level Estimated
Mon 09:01:00 PM 34.9301 127.5888 166° South  Level Estimated
Mon 09:02:00 PM 34.8422 127.6146 166° South  Level Estimated
Mon 09:03:00 PM 34.8398 127.6153 166° South  Level Estimated
Mon 09:04:00 PM 34.8398 127.6153 180° South  Level Estimated
Mon 09:05:00 PM 34.8398 127.6153 180° South  Level Estimated
Mon 09:06:00 PM 34.8398 127.6153 180° South  Level Estimated
Mon 09:07:00 PM 34.8398 127.6153 180° South  Level Estimated
Mon 09:08:00 PM 34.8398 127.6153 180° South  Level Estimated
Mon 09:09:00 PM 34.8398 127.6153 180° South  Level Estimated
Mon 09:10:00 PM 34.8398 127.6153 180° South  Level Estimated
Mon 09:11:00 PM 34.8398 127.6153 180° South  Level Estimated
Mon 09:12:00 PM 34.8398 127.6153 180° South  Level Estimated
Mon 09:13:00 PM 34.8398 127.6153 180° South  Level Estimated
Mon 09:14:00 PM 34.8398 127.6153 180° South  Level Estimated

Login

Don't have an account? Register now (free) for customized features, flight alerts, and more!